Time;durP1;ratioP1;P1;durP2;ratioP2;P2;SDS_P1;SDS_P2;PMS_P1;PMS_P2;Temp;Humidity;BMP_temperature;BMP_pressure;BME280_temperature;BME280_humidity;BME280_pressure;Samples;Min_cycle;Max_cycle;Signal;HPM_P1;HPM_P2
2021/08/15 00:00:50;;;;;;;14.50;7.18;;;17.80;99.90;;;;;;2630936;54;20137;-79
2021/08/15 00:03:22;;;;;;;15.95;8.18;;;17.90;99.90;;;;;;2631005;47;20145;-79
2021/08/15 00:05:50;;;;;;;13.45;8.07;;;17.90;99.90;;;;;;2630780;46;20181;-80
2021/08/15 00:08:19;;;;;;;11.07;8.23;;;18.10;99.90;;;;;;2631078;54;20164;-80
2021/08/15 00:10:48;;;;;;;11.50;7.82;;;18.00;99.90;;;;;;2630840;54;20136;-79
2021/08/15 00:13:17;;;;;;;9.80;7.28;;;18.00;99.90;;;;;;2630394;47;20221;-79
2021/08/15 00:15:46;;;;;;;19.45;8.57;;;18.00;99.90;;;;;;2630335;47;20161;-79
2021/08/15 00:18:15;;;;;;;13.77;7.13;;;17.90;99.90;;;;;;2630981;54;20699;-80
2021/08/15 00:20:48;;;;;;;13.05;6.68;;;18.20;99.90;;;;;;2630879;54;20157;-80
2021/08/15 00:23:17;;;;;;;11.95;7.70;;;18.50;99.90;;;;;;2630739;47;20132;-78
2021/08/15 00:25:46;;;;;;;11.25;7.72;;;18.50;99.90;;;;;;2630723;54;20146;-78
2021/08/15 00:28:15;;;;;;;14.68;7.28;;;18.40;99.90;;;;;;2630362;54;20157;-79
2021/08/15 00:30:44;;;;;;;12.68;7.80;;;18.20;99.90;;;;;;2629586;54;20644;-79
2021/08/15 00:33:12;;;;;;;12.90;7.90;;;18.00;99.90;;;;;;2629950;54;20149;-80
2021/08/15 00:35:43;;;;;;;19.13;6.82;;;17.80;99.90;;;;;;2634407;39;20769;-81
2021/08/15 00:38:14;;;;;;;14.65;8.10;;;17.70;99.90;;;;;;2630930;47;20149;-79
2021/08/15 00:40:43;;;;;;;12.55;7.65;;;17.50;99.90;;;;;;2630551;47;20160;-79
2021/08/15 00:43:12;;;;;;;11.10;7.70;;;17.20;99.90;;;;;;2630729;46;20141;-78
2021/08/15 00:45:40;;;;;;;10.23;7.72;;;16.80;99.90;;;;;;2628943;54;20145;-79
2021/08/15 00:48:11;;;;;;;10.52;7.85;;;16.60;99.90;;;;;;2628587;54;20225;-80
2021/08/15 00:50:41;;;;;;;14.35;9.15;;;16.40;99.90;;;;;;2629998;47;20149;-78
2021/08/15 00:53:09;;;;;;;9.32;6.82;;;16.30;99.90;;;;;;2629548;47;20141;-77
2021/08/15 00:55:41;;;;;;;14.70;8.18;;;16.30;99.90;;;;;;2629099;54;20157;-76
2021/08/15 00:58:13;;;;;;;12.85;6.10;;;16.60;99.90;;;;;;2628057;46;20168;-77
2021/08/15 01:00:42;;;;;;;12.98;8.02;;;16.60;99.90;;;;;;2630497;31;20637;-76
2021/08/15 01:03:10;;;;;;;12.60;7.50;;;16.80;99.90;;;;;;2627301;54;20149;-78
2021/08/15 01:05:39;;;;;;;12.50;7.90;;;17.00;99.90;;;;;;2628456;54;20145;-78
2021/08/15 01:08:08;;;;;;;17.67;7.57;;;17.00;99.90;;;;;;2628376;46;20168;-77
2021/08/15 01:10:37;;;;;;;14.27;8.00;;;16.90;99.90;;;;;;2633422;39;20611;-78
2021/08/15 01:13:10;;;;;;;11.30;7.50;;;16.70;99.90;;;;;;2630468;39;20559;-78
2021/08/15 01:15:39;;;;;;;9.57;7.65;;;16.80;99.90;;;;;;2628662;46;20188;-77
2021/08/15 01:18:21;;;;;;;13.85;6.85;;;16.60;99.90;;;;;;2628841;54;20150;-79
2021/08/15 01:20:51;;;;;;;11.40;7.05;;;16.50;99.90;;;;;;2626594;54;20177;-77
2021/08/15 01:23:20;;;;;;;9.57;8.27;;;16.50;99.90;;;;;;2629389;54;20137;-79
2021/08/15 01:25:49;;;;;;;13.18;8.05;;;16.40;99.90;;;;;;2629164;54;20128;-78
2021/08/15 01:28:21;;;;;;;12.02;7.32;;;16.40;99.90;;;;;;2629092;54;20122;-77
2021/08/15 01:30:50;;;;;;;12.10;7.95;;;16.40;99.90;;;;;;2629552;54;20146;-78
2021/08/15 01:33:30;;;;;;;13.45;6.57;;;16.20;99.90;;;;;;2629275;47;20149;-78
2021/08/15 01:36:01;;;;;;;12.20;7.72;;;16.10;99.90;;;;;;2629273;48;20157;-78
2021/08/15 01:38:33;;;;;;;13.40;8.85;;;16.00;99.90;;;;;;2628850;54;20133;-78
2021/08/15 01:41:02;;;;;;;12.75;7.88;;;15.80;99.90;;;;;;2629175;47;20161;-78
2021/08/15 01:43:34;;;;;;;16.52;7.47;;;15.70;99.90;;;;;;2629887;39;20554;-78
2021/08/15 01:46:04;;;;;;;13.65;7.80;;;15.60;99.90;;;;;;2628069;47;20192;-77
2021/08/15 01:48:32;;;;;;;9.70;7.22;;;15.60;99.90;;;;;;2628616;54;20158;-78
2021/08/15 01:51:01;;;;;;;13.57;8.13;;;15.60;99.90;;;;;;2629344;54;20137;-76
2021/08/15 01:53:30;;;;;;;9.68;8.27;;;15.60;99.90;;;;;;2629105;54;20148;-78
2021/08/15 01:55:58;;;;;;;14.50;7.55;;;15.70;99.90;;;;;;2628118;54;20179;-77
2021/08/15 01:58:27;;;;;;;10.07;7.70;;;15.80;99.90;;;;;;2628862;54;20899;-77
2021/08/15 02:00:58;;;;;;;14.50;8.20;;;16.10;99.90;;;;;;2628910;47;20177;-78
2021/08/15 02:03:27;;;;;;;13.35;8.45;;;16.00;99.90;;;;;;2628879;54;20138;-78
2021/08/15 02:05:56;;;;;;;13.30;8.35;;;16.00;99.90;;;;;;2628861;47;20141;-77
2021/08/15 02:08:25;;;;;;;15.10;8.80;;;15.90;99.90;;;;;;2629739;54;20150;-78
2021/08/15 02:10:54;;;;;;;10.70;7.10;;;15.70;99.90;;;;;;2628670;54;20152;-77
2021/08/15 02:13:22;;;;;;;16.15;8.13;;;15.70;99.90;;;;;;2628424;47;20153;-78
2021/08/15 02:15:54;;;;;;;9.18;8.02;;;15.70;99.90;;;;;;2628581;47;20145;-78
2021/08/15 02:18:25;;;;;;;15.90;7.75;;;15.60;99.90;;;;;;2629287;47;20153;-79
2021/08/15 02:20:54;;;;;;;10.00;8.05;;;15.50;99.90;;;;;;2628718;47;20153;-76
2021/08/15 02:23:23;;;;;;;13.98;9.18;;;15.50;99.90;;;;;;2631197;39;20579;-77
2021/08/15 02:25:53;;;;;;;15.45;8.93;;;15.50;99.90;;;;;;2628491;47;20153;-77
2021/08/15 02:28:22;;;;;;;11.18;7.57;;;15.50;99.90;;;;;;2629038;54;20161;-77
2021/08/15 02:30:51;;;;;;;13.45;9.02;;;15.50;99.90;;;;;;2627126;54;20562;-78
2021/08/15 02:33:20;;;;;;;12.02;8.00;;;15.40;99.90;;;;;;2628073;54;20153;-78
2021/08/15 02:35:53;;;;;;;14.93;9.02;;;15.50;99.90;;;;;;2629355;47;20181;-79
2021/08/15 02:38:22;;;;;;;11.15;8.55;;;15.40;99.90;;;;;;2629565;47;20129;-78
2021/08/15 02:40:51;;;;;;;16.58;8.75;;;15.40;99.90;;;;;;2629092;47;20141;-78
2021/08/15 02:43:20;;;;;;;12.98;9.48;;;15.40;99.90;;;;;;2629444;47;20707;-79
2021/08/15 02:45:49;;;;;;;11.10;9.55;;;15.10;99.90;;;;;;2629822;47;20134;-78
2021/08/15 02:48:18;;;;;;;11.32;9.32;;;14.60;99.90;;;;;;2629984;54;20157;-79
2021/08/15 02:50:46;;;;;;;17.08;9.82;;;14.60;99.90;;;;;;2629575;47;20168;-77
2021/08/15 02:53:18;;;;;;;15.35;10.10;;;14.70;99.90;;;;;;2629906;54;20148;-77
2021/08/15 02:55:46;;;;;;;12.95;9.23;;;14.80;99.90;;;;;;2629593;47;20202;-77
2021/08/15 02:58:15;;;;;;;14.73;9.32;;;15.10;99.90;;;;;;2629235;47;20160;-77
2021/08/15 03:00:44;;;;;;;17.83;10.40;;;15.10;99.90;;;;;;2629930;47;20141;-78
2021/08/15 03:03:12;;;;;;;12.10;8.45;;;15.20;99.90;;;;;;2630710;54;20142;-78
2021/08/15 03:05:41;;;;;;;15.73;9.98;;;15.10;99.90;;;;;;2629964;47;20140;-77
2021/08/15 03:08:10;;;;;;;15.23;9.43;;;15.10;99.90;;;;;;2629952;47;20168;-78
2021/08/15 03:10:41;;;;;;;16.00;9.80;;;15.20;99.90;;;;;;2630424;54;20146;-77
2021/08/15 03:13:10;;;;;;;12.25;8.82;;;15.00;99.90;;;;;;2630485;54;20185;-77
2021/08/15 03:15:40;;;;;;;15.50;10.18;;;14.90;99.90;;;;;;2629742;46;20156;-79
2021/08/15 03:18:09;;;;;;;13.85;9.95;;;14.90;99.90;;;;;;2630153;46;20177;-77
2021/08/15 03:20:37;;;;;;;15.68;9.43;;;14.90;99.90;;;;;;2629771;46;20236;-77
2021/08/15 03:23:06;;;;;;;11.07;8.65;;;15.10;99.90;;;;;;2630259;54;20159;-77
2021/08/15 03:25:37;;;;;;;15.18;8.50;;;15.40;99.90;;;;;;2629096;54;20133;-77
2021/08/15 03:28:09;;;;;;;17.35;8.68;;;15.50;99.90;;;;;;2629644;54;20141;-77
2021/08/15 03:30:38;;;;;;;11.18;8.85;;;15.60;99.90;;;;;;2630037;54;20222;-77
2021/08/15 03:33:06;;;;;;;14.00;9.68;;;15.40;99.90;;;;;;2629325;47;20149;-78
2021/08/15 03:35:35;;;;;;;13.25;9.05;;;15.40;99.90;;;;;;2629101;54;20675;-77
2021/08/15 03:38:04;;;;;;;14.20;10.65;;;15.30;99.90;;;;;;2629298;54;20145;-78
2021/08/15 03:40:33;;;;;;;15.32;9.40;;;15.40;99.90;;;;;;2629173;54;20137;-78
2021/08/15 03:43:01;;;;;;;11.98;9.98;;;15.00;99.90;;;;;;2630863;39;20562;-78
2021/08/15 03:45:33;;;;;;;17.10;10.80;;;14.80;99.90;;;;;;2629153;47;20149;-78
2021/08/15 03:48:02;;;;;;;13.85;10.90;;;14.70;99.90;;;;;;2629842;54;20160;-78
2021/08/15 03:50:30;;;;;;;14.13;9.68;;;14.50;99.90;;;;;;2629763;54;20121;-77
2021/08/15 03:52:59;;;;;;;16.48;10.50;;;14.50;99.90;;;;;;2629675;54;20149;-78
2021/08/15 03:55:28;;;;;;;14.80;9.70;;;14.50;99.90;;;;;;2629425;54;20149;-78
2021/08/15 03:57:56;;;;;;;18.48;10.02;;;14.30;99.90;;;;;;2629856;54;20257;-77
2021/08/15 04:00:25;;;;;;;14.02;9.88;;;14.30;99.90;;;;;;2629687;47;20849;-78
2021/08/15 04:02:57;;;;;;;22.02;11.70;;;14.60;99.90;;;;;;2630080;47;20216;-77
2021/08/15 04:05:26;;;;;;;17.83;10.85;;;14.80;99.90;;;;;;2631075;54;20193;-77
2021/08/15 04:07:54;;;;;;;13.20;9.45;;;14.90;99.90;;;;;;2631304;47;20164;-78
2021/08/15 04:10:23;;;;;;;14.70;9.90;;;15.00;99.90;;;;;;2630407;47;20148;-76
2021/08/15 04:12:52;;;;;;;19.65;10.98;;;15.00;99.90;;;;;;2630879;46;20211;-78
2021/08/15 04:15:21;;;;;;;13.10;9.25;;;15.10;99.90;;;;;;2631196;46;20878;-78
2021/08/15 04:17:50;;;;;;;15.40;9.70;;;15.00;99.90;;;;;;2631362;54;20138;-77
2021/08/15 04:20:21;;;;;;;14.45;9.23;;;15.10;99.90;;;;;;2631293;54;20182;-78
2021/08/15 04:22:50;;;;;;;15.95;10.02;;;15.00;99.90;;;;;;2631164;54;20203;-78
2021/08/15 04:25:20;;;;;;;19.60;10.75;;;15.10;99.90;;;;;;2632683;39;20849;-78
2021/08/15 04:27:48;;;;;;;17.08;10.65;;;15.10;99.90;;;;;;2631111;47;20237;-78
2021/08/15 04:30:17;;;;;;;20.08;10.32;;;15.00;99.90;;;;;;2630662;47;20197;-79
2021/08/15 04:32:46;;;;;;;13.20;9.25;;;14.90;99.90;;;;;;2631312;54;21073;-78
2021/08/15 04:35:15;;;;;;;15.50;9.93;;;14.90;99.90;;;;;;2630997;54;20132;-78
2021/08/15 04:37:46;;;;;;;18.33;10.48;;;15.00;99.90;;;;;;2631177;47;20145;-78
2021/08/15 04:40:16;;;;;;;18.92;11.35;;;15.20;99.90;;;;;;2631291;54;20152;-78
2021/08/15 04:42:45;;;;;;;13.57;11.32;;;15.00;99.90;;;;;;2631080;46;20261;-78
2021/08/15 04:45:14;;;;;;;13.98;9.50;;;15.00;99.90;;;;;;2631104;47;20907;-77
2021/08/15 04:47:42;;;;;;;19.13;9.88;;;15.20;99.90;;;;;;2631094;54;20164;-78
2021/08/15 04:50:12;;;;;;;19.98;11.50;;;15.10;99.90;;;;;;2631170;47;20132;-78
2021/08/15 04:52:40;;;;;;;13.93;9.35;;;15.30;99.90;;;;;;2631296;46;20165;-78
2021/08/15 04:55:13;;;;;;;16.17;9.93;;;15.30;99.90;;;;;;2631101;47;20130;-78
2021/08/15 04:57:42;;;;;;;15.05;8.90;;;15.30;99.90;;;;;;2631236;46;20156;-79
2021/08/15 05:00:12;;;;;;;18.63;10.98;;;15.20;99.90;;;;;;2631214;46;20221;-77
2021/08/15 05:02:41;;;;;;;16.50;9.75;;;15.10;99.90;;;;;;2631193;47;20155;-77
2021/08/15 05:05:11;;;;;;;17.27;10.75;;;15.00;99.90;;;;;;2630540;47;20743;-79
2021/08/15 05:07:40;;;;;;;15.45;10.98;;;14.90;99.90;;;;;;2631270;46;20152;-79
2021/08/15 05:10:12;;;;;;;14.63;9.90;;;15.00;99.90;;;;;;2631225;47;20153;-77
2021/08/15 05:12:41;;;;;;;11.55;8.70;;;15.10;99.90;;;;;;2634178;46;20207;-78
2021/08/15 05:15:11;;;;;;;13.13;10.75;;;15.20;99.90;;;;;;2631118;46;20137;-78
2021/08/15 05:17:40;;;;;;;11.15;8.88;;;15.30;99.90;;;;;;2631184;47;20148;-78
2021/08/15 05:20:10;;;;;;;11.10;8.77;;;15.40;99.90;;;;;;2630714;47;20145;-79
2021/08/15 05:22:39;;;;;;;12.45;9.25;;;15.50;99.90;;;;;;2631040;47;20149;-77
2021/08/15 05:25:08;;;;;;;14.63;10.30;;;15.40;99.90;;;;;;2630867;47;20157;-78
2021/08/15 05:27:40;;;;;;;14.05;9.82;;;15.60;99.90;;;;;;2630931;47;20136;-79
2021/08/15 05:30:10;;;;;;;14.07;9.63;;;15.60;99.90;;;;;;2631116;47;20153;-79
2021/08/15 05:32:39;;;;;;;15.40;9.73;;;15.50;99.90;;;;;;2631079;54;20161;-78
2021/08/15 05:35:08;;;;;;;16.52;10.52;;;15.50;99.90;;;;;;2630934;47;20209;-78
2021/08/15 05:37:37;;;;;;;10.38;9.13;;;15.60;99.90;;;;;;2630706;54;20173;-77
2021/08/15 05:40:07;;;;;;;11.45;9.65;;;15.90;99.90;;;;;;2631007;46;20141;-78
2021/08/15 05:42:36;;;;;;;15.02;9.73;;;16.00;99.90;;;;;;2632291;46;20182;-78
2021/08/15 05:45:09;;;;;;;13.80;9.23;;;15.90;99.90;;;;;;2630632;47;20162;-78
2021/08/15 05:47:38;;;;;;;14.43;10.75;;;15.80;99.90;;;;;;2630808;47;20150;-77
2021/08/15 05:50:09;;;;;;;14.70;10.93;;;15.60;99.90;;;;;;2631003;54;20833;-78
2021/08/15 05:52:38;;;;;;;16.20;10.35;;;15.60;99.90;;;;;;2630983;47;20160;-78
2021/08/15 05:55:08;;;;;;;14.90;10.02;;;15.70;99.90;;;;;;2630398;54;20153;-77
2021/08/15 05:57:37;;;;;;;11.13;8.55;;;15.80;99.90;;;;;;2630732;47;20161;-78
2021/08/15 06:00:10;;;;;;;16.58;10.13;;;16.00;99.90;;;;;;2631069;46;20151;-78
2021/08/15 06:02:43;;;;;;;12.50;9.95;;;16.30;99.90;;;;;;2630970;47;20160;-78
2021/08/15 06:05:13;;;;;;;12.55;10.40;;;16.10;99.90;;;;;;2630838;47;20153;-78
2021/08/15 06:07:43;;;;;;;15.13;9.18;;;16.20;99.90;;;;;;2631074;46;20134;-79
2021/08/15 06:10:13;;;;;;;15.02;11.23;;;16.20;99.90;;;;;;2630464;46;20197;-77
2021/08/15 06:12:42;;;;;;;15.40;11.30;;;16.20;99.90;;;;;;2630836;54;20173;-78
2021/08/15 06:15:14;;;;;;;15.98;11.98;;;16.40;99.90;;;;;;2630780;47;20145;-77
2021/08/15 06:17:44;;;;;;;15.98;10.50;;;16.30;99.90;;;;;;2630769;46;20145;-77
2021/08/15 06:20:15;;;;;;;15.98;11.48;;;16.40;99.90;;;;;;2630654;47;20133;-77
2021/08/15 06:22:46;;;;;;;16.10;11.45;;;16.50;99.90;;;;;;2630842;54;20161;-77
2021/08/15 06:25:17;;;;;;;15.93;10.60;;;16.40;99.90;;;;;;2630849;47;20149;-77
2021/08/15 06:27:46;;;;;;;15.38;10.52;;;16.70;99.90;;;;;;2630585;47;20896;-77
2021/08/15 06:30:21;;;;;;;15.55;10.25;;;16.90;99.90;;;;;;2630714;47;20129;-77
2021/08/15 06:32:52;;;;;;;16.13;10.40;;;17.10;99.90;;;;;;2629827;54;20207;-77
2021/08/15 06:35:22;;;;;;;13.98;10.05;;;17.50;99.90;;;;;;2646323;39;20675;-78
2021/08/15 06:37:52;;;;;;;13.95;9.73;;;17.80;99.90;;;;;;2630856;54;20149;-79
2021/08/15 06:40:23;;;;;;;17.00;9.63;;;17.90;99.90;;;;;;2630907;47;20129;-78
2021/08/15 06:42:53;;;;;;;15.98;11.20;;;18.10;99.90;;;;;;2630548;47;20172;-77
2021/08/15 06:45:24;;;;;;;14.00;9.55;;;18.10;99.90;;;;;;2630647;47;20145;-79
2021/08/15 06:47:53;;;;;;;14.52;9.88;;;18.20;99.90;;;;;;2630892;47;20153;-80
2021/08/15 06:50:21;;;;;;;11.50;10.02;;;18.20;99.90;;;;;;2630455;47;20145;-79
2021/08/15 06:52:50;;;;;;;18.30;9.60;;;18.20;99.90;;;;;;2630851;47;20159;-79
2021/08/15 06:55:19;;;;;;;17.55;9.50;;;18.40;99.90;;;;;;2630684;54;20193;-78
2021/08/15 06:57:48;;;;;;;12.18;9.93;;;18.40;99.90;;;;;;2630716;47;20180;-79
2021/08/15 07:00:18;;;;;;;10.70;9.57;;;18.50;99.90;;;;;;2630771;47;20136;-79
2021/08/15 07:02:49;;;;;;;16.58;9.30;;;18.30;99.90;;;;;;2630665;47;20880;-78
2021/08/15 07:05:19;;;;;;;14.48;9.43;;;18.20;99.90;;;;;;2630254;47;20188;-78
2021/08/15 07:07:48;;;;;;;14.43;9.88;;;18.50;99.90;;;;;;2630712;47;20221;-78
2021/08/15 07:10:17;;;;;;;19.48;10.45;;;19.00;99.90;;;;;;2630751;54;20146;-77
2021/08/15 07:12:48;;;;;;;13.90;9.68;;;19.10;99.90;;;;;;2630684;47;20180;-78
2021/08/15 07:15:17;;;;;;;16.50;8.85;;;19.10;99.90;;;;;;2630768;47;20185;-77
2021/08/15 07:17:48;;;;;;;21.55;10.30;;;19.10;99.90;;;;;;2630657;54;20253;-79
2021/08/15 07:20:18;;;;;;;18.73;10.15;;;19.00;99.90;;;;;;2630577;47;20141;-78
2021/08/15 07:22:47;;;;;;;12.07;8.75;;;19.10;99.90;;;;;;2630257;47;20165;-78
2021/08/15 07:25:16;;;;;;;18.75;10.50;;;19.30;99.90;;;;;;2630605;47;20145;-79
2021/08/15 07:27:45;;;;;;;21.48;10.48;;;19.40;99.90;;;;;;2630583;47;20129;-77
2021/08/15 07:30:17;;;;;;;14.98;9.27;;;19.60;99.90;;;;;;2630648;47;20146;-78
2021/08/15 07:32:57;;;;;;;15.95;8.32;;;19.70;99.90;;;;;;2630678;47;21029;-77
2021/08/15 07:35:27;;;;;;;13.48;9.43;;;19.70;99.90;;;;;;2637886;39;20748;-76
2021/08/15 07:37:56;;;;;;;13.35;9.95;;;19.80;99.90;;;;;;2629938;54;20142;-77
2021/08/15 07:40:25;;;;;;;14.98;9.07;;;20.00;99.90;;;;;;2630444;54;20145;-77
2021/08/15 07:42:54;;;;;;;13.27;8.30;;;19.90;99.90;;;;;;2630369;47;20172;-77
2021/08/15 07:45:25;;;;;;;15.52;8.70;;;20.10;99.90;;;;;;2630842;47;20152;-77
2021/08/15 07:47:57;;;;;;;13.45;9.43;;;20.00;99.90;;;;;;2631119;47;20152;-77
2021/08/15 07:50:29;;;;;;;13.05;8.20;;;20.10;99.90;;;;;;2631322;47;20129;-77
2021/08/15 07:52:58;;;;;;;11.75;9.52;;;20.10;99.90;;;;;;2631430;54;20185;-77
2021/08/15 07:55:27;;;;;;;15.70;11.32;;;20.10;99.90;;;;;;2631146;54;20146;-77
2021/08/15 07:57:56;;;;;;;16.02;10.15;;;20.20;99.90;;;;;;2630611;47;20153;-76
2021/08/15 08:00:31;;;;;;;16.45;9.75;;;20.20;99.90;;;;;;2631340;47;20208;-76
2021/08/15 08:03:03;;;;;;;16.50;10.75;;;20.10;99.90;;;;;;2631086;54;20182;-79
2021/08/15 08:05:31;;;;;;;15.63;9.05;;;20.00;99.90;;;;;;2631446;47;20146;-83
2021/08/15 08:08:00;;;;;;;16.67;9.25;;;20.10;99.90;;;;;;2631450;47;20157;-79
2021/08/15 08:10:29;;;;;;;17.05;11.07;;;20.20;99.90;;;;;;2633610;46;20145;-79
2021/08/15 08:12:58;;;;;;;13.02;9.98;;;20.10;99.90;;;;;;2631086;47;20240;-79
2021/08/15 08:15:27;;;;;;;16.88;9.55;;;20.20;99.90;;;;;;2637191;39;20808;-78
2021/08/15 08:17:56;;;;;;;15.05;11.30;;;20.50;99.90;;;;;;2633766;39;20795;-80
2021/08/15 08:20:32;;;;;;;20.08;11.52;;;20.70;99.90;;;;;;2631551;54;20214;-78
2021/08/15 08:23:01;;;;;;;19.25;11.48;;;20.80;99.90;;;;;;2631591;46;20160;-79
2021/08/15 08:25:30;;;;;;;19.92;11.48;;;21.00;99.90;;;;;;2631519;54;20205;-80
2021/08/15 08:27:59;;;;;;;15.35;10.68;;;20.90;99.90;;;;;;2631506;47;20126;-81
2021/08/15 08:30:28;;;;;;;23.30;12.02;;;21.20;99.90;;;;;;2630172;54;20966;-81
2021/08/15 08:32:57;;;;;;;21.25;13.05;;;21.20;99.90;;;;;;2631027;54;20200;-81
2021/08/15 08:35:28;;;;;;;18.42;10.45;;;21.10;99.90;;;;;;2631096;47;20470;-80
2021/08/15 08:37:57;;;;;;;19.20;11.27;;;21.10;99.90;;;;;;2634502;39;20897;-81
2021/08/15 08:40:27;;;;;;;19.92;12.80;;;21.40;99.90;;;;;;2631440;46;20145;-81
2021/08/15 08:42:56;;;;;;;16.60;11.95;;;21.40;99.90;;;;;;2631524;47;20157;-81
2021/08/15 08:45:26;;;;;;;14.98;11.60;;;21.40;99.90;;;;;;2634478;46;20164;-81
2021/08/15 08:47:56;;;;;;;18.67;12.73;;;21.40;99.90;;;;;;2631206;46;20153;-80
2021/08/15 08:50:28;;;;;;;17.60;11.98;;;21.50;99.90;;;;;;2631363;47;20193;-81
2021/08/15 08:52:57;;;;;;;14.50;12.70;;;21.90;99.90;;;;;;2631398;54;20164;-78
2021/08/15 08:55:26;;;;;;;20.70;13.20;;;22.10;99.90;;;;;;2630946;47;20173;-79
2021/08/15 08:57:54;;;;;;;20.15;12.27;;;22.30;99.90;;;;;;2631300;47;20160;-79
2021/08/15 09:03:06;;;;;;;20.90;12.60;;;21.90;99.90;;;;;;2631368;54;20188;-81
2021/08/15 09:05:38;;;;;;;17.85;12.68;;;22.00;99.90;;;;;;2630929;47;20149;-80
2021/08/15 09:08:26;;;;;;;15.00;11.15;;;22.20;99.90;;;;;;2631476;54;20168;-80
2021/08/15 09:10:55;;;;;;;14.25;11.32;;;22.50;99.90;;;;;;2631514;47;20142;-81
2021/08/15 09:13:28;;;;;;;12.10;8.60;;;22.70;99.90;;;;;;2631407;54;20180;-80
2021/08/15 09:15:58;;;;;;;18.67;9.35;;;22.90;99.90;;;;;;2631063;47;20141;-79
2021/08/15 09:18:31;;;;;;;13.32;8.80;;;23.10;99.90;;;;;;2631234;54;20159;-80
2021/08/15 09:21:02;;;;;;;14.70;9.32;;;23.20;99.90;;;;;;2636680;39;20729;-79
2021/08/15 09:23:34;;;;;;;14.88;8.02;;;23.10;99.90;;;;;;2631254;54;20149;-80
2021/08/15 09:26:22;;;;;;;10.25;8.25;;;23.30;99.90;;;;;;2631246;47;20133;-80
2021/08/15 09:28:53;;;;;;;16.33;8.43;;;23.60;99.90;;;;;;2631118;54;20164;-81
2021/08/15 09:31:24;;;;;;;14.35;9.18;;;23.50;99.90;;;;;;2631053;47;20161;-81
2021/08/15 09:33:56;;;;;;;12.65;9.23;;;23.70;99.90;;;;;;2631276;47;20153;-79
2021/08/15 09:36:34;;;;;;;13.35;9.48;;;23.80;99.90;;;;;;2630765;46;20141;-80
2021/08/15 09:39:05;;;;;;;14.63;10.57;;;23.70;99.90;;;;;;2631212;54;20133;-79
2021/08/15 09:41:36;;;;;;;12.38;8.38;;;24.00;99.90;;;;;;2631176;47;20176;-80
2021/08/15 09:44:25;;;;;;;13.50;7.32;;;24.10;99.90;;;;;;2631234;47;20199;-80
2021/08/15 09:47:02;;;;;;;17.40;9.55;;;24.20;99.90;;;;;;2631320;47;20133;-79
2021/08/15 09:49:36;;;;;;;13.50;8.95;;;24.20;99.90;;;;;;2631365;54;20934;-81
2021/08/15 09:52:10;;;;;;;12.90;7.40;;;24.10;99.90;;;;;;2630931;54;20223;-81
2021/08/15 09:54:40;;;;;;;7.35;6.25;;;24.20;99.90;;;;;;2631225;47;20160;-81
2021/08/15 09:57:10;;;;;;;7.53;6.30;;;24.00;99.90;;;;;;2631348;46;20210;-82
2021/08/15 10:10:38;;;;;;;6.85;5.35;;;24.10;99.90;;;;;;2631272;54;20157;-80
2021/08/15 10:13:07;;;;;;;7.72;4.85;;;24.60;99.90;;;;;;2631214;54;20193;-81
2021/08/15 10:15:39;;;;;;;7.13;5.10;;;24.90;99.90;;;;;;2631262;47;20125;-80
2021/08/15 10:18:12;;;;;;;8.38;6.13;;;25.10;99.90;;;;;;2631275;47;20138;-82
2021/08/15 10:23:18;;;;;;;10.35;7.90;;;24.70;99.90;;;;;;2631000;54;20177;-80
2021/08/15 10:25:49;;;;;;;7.28;4.95;;;24.70;99.90;;;;;;2631077;46;20133;-82
2021/08/15 10:30:49;;;;;;;9.65;5.70;;;24.40;99.90;;;;;;2630210;47;20201;-80
2021/08/15 10:33:22;;;;;;;9.63;5.93;;;24.40;99.90;;;;;;2630984;47;20181;-81
2021/08/15 10:36:20;;;;;;;13.82;5.53;;;24.80;99.90;;;;;;2630980;54;20152;-81
2021/08/15 10:38:50;;;;;;;9.32;6.03;;;24.70;99.90;;;;;;2630420;54;20204;-81
2021/08/15 10:44:13;;;;;;;10.45;7.07;;;25.10;99.90;;;;;;2631041;47;20126;-81
2021/08/15 10:47:14;;;;;;;10.98;6.35;;;25.10;99.90;;;;;;2631129;47;20130;-81
2021/08/15 10:49:54;;;;;;;7.93;5.20;;;24.70;99.90;;;;;;2630309;54;20204;-80
2021/08/15 10:52:34;;;;;;;10.05;6.45;;;24.40;99.90;;;;;;2631137;47;20276;-83
2021/08/15 10:55:04;;;;;;;10.27;6.18;;;24.10;99.90;;;;;;2629021;47;20285;-82
2021/08/15 10:57:52;;;;;;;7.15;5.88;;;24.40;99.90;;;;;;2630817;47;20186;-81
2021/08/15 11:03:23;;;;;;;7.47;5.82;;;24.90;99.90;;;;;;2632856;54;21665;-82
2021/08/15 11:06:05;;;;;;;7.65;6.15;;;25.30;99.90;;;;;;2625878;54;20240;-80
2021/08/15 11:08:56;;;;;;;10.40;5.80;;;25.50;99.90;;;;;;2635455;46;20209;-82
2021/08/15 11:11:30;;;;;;;9.65;6.43;;;25.50;99.90;;;;;;2635340;46;20149;-82
2021/08/15 11:14:27;;;;;;;9.63;6.22;;;25.50;99.90;;;;;;2638444;46;20263;-80
2021/08/15 11:16:58;;;;;;;10.32;5.50;;;25.40;99.90;;;;;;2635253;46;20192;-81
2021/08/15 11:19:32;;;;;;;9.57;6.45;;;25.90;99.90;;;;;;2632787;46;20227;-82
2021/08/15 11:22:10;;;;;;;13.60;6.28;;;26.10;99.90;;;;;;2653663;38;20836;-80
2021/08/15 11:24:49;;;;;;;7.03;5.57;;;26.10;99.90;;;;;;2635435;46;20172;-79
2021/08/15 11:27:25;;;;;;;7.70;5.32;;;26.00;99.90;;;;;;2635243;46;20170;-81
2021/08/15 11:29:54;;;;;;;8.57;5.63;;;26.10;99.90;;;;;;2635187;54;20164;-81
2021/08/15 11:32:25;;;;;;;7.65;5.75;;;26.10;99.90;;;;;;2634948;54;20161;-81
2021/08/15 11:34:58;;;;;;;6.28;5.22;;;26.00;99.90;;;;;;2635398;46;20196;-82
2021/08/15 11:37:28;;;;;;;10.38;5.45;;;26.10;99.90;;;;;;2635367;46;20143;-82
2021/08/15 11:40:13;;;;;;;10.88;5.90;;;26.20;99.90;;;;;;2635196;54;20152;-82
2021/08/15 11:42:42;;;;;;;7.47;6.05;;;26.50;99.90;;;;;;2635362;46;20159;-82
2021/08/15 11:45:13;;;;;;;10.45;4.53;;;26.50;99.90;;;;;;2639319;38;20700;-82
2021/08/15 11:47:43;;;;;;;9.10;5.30;;;26.50;99.90;;;;;;2635415;46;20179;-81
2021/08/15 11:52:48;;;;;;;6.55;4.70;;;26.60;99.90;;;;;;2635393;54;20824;-82
2021/08/15 11:55:26;;;;;;;7.15;4.38;;;26.70;99.90;;;;;;2634795;46;20197;-81
2021/08/15 11:57:56;;;;;;;9.27;4.93;;;26.90;99.90;;;;;;2635454;46;20155;-81
2021/08/15 12:00:31;;;;;;;5.50;4.05;;;27.00;99.90;;;;;;2634883;46;20252;-81
2021/08/15 12:03:08;;;;;;;6.07;4.45;;;27.10;99.90;;;;;;2635051;46;20164;-79
2021/08/15 12:05:39;;;;;;;8.43;3.42;;;27.00;99.90;;;;;;2635066;46;20259;-80
2021/08/15 12:08:10;;;;;;;5.18;3.60;;;27.10;99.90;;;;;;2652388;38;20741;-79
2021/08/15 12:10:50;;;;;;;5.82;3.28;;;27.50;99.90;;;;;;2633183;47;20196;-79
2021/08/15 12:13:22;;;;;;;5.00;3.30;;;27.30;99.90;;;;;;2633365;54;20184;-81
2021/08/15 12:15:53;;;;;;;6.53;4.10;;;27.10;99.90;;;;;;2631399;47;20149;-82
2021/08/15 12:18:37;;;;;;;4.38;3.13;;;26.40;99.90;;;;;;2631562;47;20168;-80
2021/08/15 12:21:20;;;;;;;8.60;4.13;;;26.70;99.90;;;;;;2631640;47;20402;-81
2021/08/15 12:24:11;;;;;;;5.32;3.90;;;27.30;99.90;;;;;;2629155;47;20241;-81
2021/08/15 12:26:45;;;;;;;6.57;3.28;;;27.70;99.90;;;;;;2631343;47;20122;-81
2021/08/15 12:29:21;;;;;;;5.63;3.92;;;27.90;99.90;;;;;;2631522;54;20155;-79
2021/08/15 12:32:07;;;;;;;5.82;4.10;;;28.10;99.90;;;;;;2631438;54;20271;-80
2021/08/15 12:34:38;;;;;;;8.35;3.75;;;28.40;99.90;;;;;;2630578;54;20173;-81
2021/08/15 12:37:19;;;;;;;4.20;3.40;;;28.10;99.90;;;;;;2631467;46;20164;-81
2021/08/15 12:39:49;;;;;;;4.93;3.28;;;28.10;99.90;;;;;;2631420;54;20153;-80
2021/08/15 12:42:23;;;;;;;4.28;3.83;;;28.30;99.90;;;;;;2631384;46;20141;-82
2021/08/15 12:44:54;;;;;;;4.82;3.35;;;28.40;99.90;;;;;;2634069;39;20666;-80
2021/08/15 12:47:30;;;;;;;7.10;4.00;;;28.90;99.90;;;;;;2629691;54;20369;-81
2021/08/15 12:50:11;;;;;;;5.35;4.05;;;28.40;99.90;;;;;;2631450;47;20145;-81
2021/08/15 12:52:51;;;;;;;5.15;3.55;;;28.00;99.90;;;;;;2631427;46;20176;-83
2021/08/15 12:55:33;;;;;;;5.85;3.60;;;28.00;99.90;;;;;;2630099;46;20220;-82
2021/08/15 12:58:07;;;;;;;4.38;3.17;;;27.70;99.90;;;;;;2631551;54;20778;-81
2021/08/15 13:06:02;;;;;;;6.80;5.82;;;27.60;99.90;;;;;;2625579;54;20192;-83
2021/08/15 13:11:20;;;;;;;28.15;19.95;;;28.40;99.90;;;;;;2629916;54;20205;-81
2021/08/15 13:13:52;;;;;;;7.18;5.47;;;28.40;99.90;;;;;;2617740;39;20444;31
2021/08/15 13:16:28;;;;;;;17.08;15.00;;;28.30;99.90;;;;;;2626326;47;20220;-82
2021/08/15 13:18:56;;;;;;;20.40;17.50;;;28.20;99.90;;;;;;2628412;47;20200;-82
2021/08/15 13:21:25;;;;;;;15.70;14.10;;;28.50;99.90;;;;;;2631336;54;21001;-82
2021/08/15 13:23:54;;;;;;;25.23;22.85;;;28.60;99.90;;;;;;2630312;54;20201;-82
2021/08/15 13:26:30;;;;;;;30.80;27.65;;;28.70;99.90;;;;;;2637290;39;21136;-81
2021/08/15 13:29:01;;;;;;;5.25;3.38;;;28.90;99.90;;;;;;2630854;47;20256;-80
2021/08/15 13:34:03;;;;;;;10.98;9.93;;;28.90;99.90;;;;;;2631487;47;20134;-81